Time;durP1;ratioP1;P1;durP2;ratioP2;P2;SDS_P1;SDS_P2;PMS_P1;PMS_P2;Temp;Humidity;BMP_temperature;BMP_pressure;BME280_temperature;BME280_humidity;BME280_pressure;Samples;Min_cycle;Max_cycle;Signal;HPM_P1;HPM_P2
2022/08/09 00:02:27;;;;;;;4.85;2.63;;;;;;;20.34;54.81;101431.94;5008542;28;20050;-51
2022/08/09 00:04:54;;;;;;;4.75;2.13;;;;;;;20.33;54.91;101430.22;5009151;28;20076;-50
2022/08/09 00:07:42;;;;;;;6.00;3.22;;;;;;;20.31;54.59;101427.63;5005740;28;20077;-50
2022/08/09 00:10:11;;;;;;;6.82;2.67;;;;;;;20.29;54.94;101429.41;5005444;28;20054;-52
2022/08/09 00:12:49;;;;;;;4.75;2.97;;;;;;;20.25;55.27;101436.53;5009807;28;20042;-52
2022/08/09 00:15:19;;;;;;;6.28;2.25;;;;;;;20.22;55.17;101439.22;5011043;28;20042;-52
2022/08/09 00:18:02;;;;;;;6.90;3.20;;;;;;;20.21;55.46;101431.34;5010148;28;20050;-51
2022/08/09 00:20:32;;;;;;;6.00;2.97;;;;;;;20.20;55.38;101438.38;5008335;28;20096;-49
2022/08/09 00:23:02;;;;;;;4.20;2.22;;;;;;;20.20;55.31;101437.50;5010220;28;20060;-51
2022/08/09 00:25:50;;;;;;;3.47;2.00;;;;;;;20.17;55.24;101435.81;5008821;28;20042;-53
2022/08/09 00:28:20;;;;;;;5.45;2.25;;;;;;;20.17;55.30;101446.34;5005983;28;20064;-52
2022/08/09 00:30:54;;;;;;;4.22;2.47;;;;;;;20.13;55.52;101445.50;5003502;28;20054;-50
2022/08/09 00:33:22;;;;;;;5.28;2.42;;;;;;;20.11;55.48;101446.44;5001284;28;20123;-52
2022/08/09 00:36:11;;;;;;;6.50;2.85;;;;;;;20.07;55.18;101445.66;5004459;28;20042;-49
2022/08/09 00:38:39;;;;;;;4.40;2.28;;;;;;;20.05;55.15;101444.81;5006861;28;20453;-53
2022/08/09 00:41:07;;;;;;;4.80;2.90;;;;;;;20.01;55.61;101451.91;5006388;28;20046;-49
2022/08/09 00:43:36;;;;;;;4.28;2.75;;;;;;;19.97;55.43;101447.59;5006508;28;20081;-46
2022/08/09 00:46:23;;;;;;;5.25;3.03;;;;;;;19.92;55.56;101454.66;5002527;28;20128;-52
2022/08/09 00:49:10;;;;;;;3.42;2.17;;;;;;;19.87;55.59;101443.38;5004336;28;20661;-52
2022/08/09 00:51:37;;;;;;;7.80;2.40;;;;;;;19.86;55.72;101446.91;5005791;28;20598;-49
2022/08/09 00:54:20;;;;;;;4.05;2.53;;;;;;;19.81;56.13;101446.13;5002212;28;20057;-48
2022/08/09 00:56:56;;;;;;;5.25;2.58;;;;;;;19.77;55.95;101448.84;5002297;28;20050;-50
2022/08/09 00:59:24;;;;;;;4.80;2.88;;;;;;;19.74;56.39;101438.38;5003105;28;20050;-47
2022/08/09 01:02:11;;;;;;;3.70;2.60;;;;;;;19.71;56.45;101448.94;5009311;28;20101;-51
2022/08/09 01:04:52;;;;;;;3.38;2.15;;;;;;;19.67;56.30;101441.13;5004260;28;20053;-47
2022/08/09 01:10:03;;;;;;;3.58;2.25;;;;;;;19.62;56.72;101442.09;5042237;28;20400;-48
2022/08/09 01:12:39;;;;;;;6.60;2.28;;;;;;;19.59;56.37;101443.91;5012343;28;20038;-47
2022/08/09 01:15:11;;;;;;;4.85;1.88;;;;;;;19.58;56.53;101447.41;5002888;28;20085;-48
2022/08/09 01:18:03;;;;;;;6.20;2.60;;;;;;;19.45;57.25;101447.63;5007553;28;20134;-48
2022/08/09 01:20:48;;;;;;;4.20;2.42;;;;;;;19.45;57.14;101442.38;5001216;28;20429;-49
2022/08/09 01:23:39;;;;;;;4.22;2.30;;;;;;;19.42;57.17;101445.06;5003556;28;20993;-51
2022/08/09 01:29:08;;;;;;;8.60;2.78;;;;;;;19.37;57.32;101439.91;5121892;27;20418;-51
2022/08/09 01:31:36;;;;;;;4.55;2.33;;;;;;;19.35;57.47;101444.31;5054967;27;20541;-51
2022/08/09 01:34:27;;;;;;;4.75;2.60;;;;;;;19.31;56.96;101439.13;5054283;28;20118;-50
2022/08/09 01:36:57;;;;;;;7.07;2.42;;;;;;;19.27;57.38;101441.84;5045265;28;20496;-47
2022/08/09 01:39:26;;;;;;;3.72;2.42;;;;;;;19.24;56.91;101449.75;5043812;28;20057;-48
2022/08/09 01:41:54;;;;;;;4.25;2.65;;;;;;;19.18;57.28;101434.09;5049331;28;20080;-48
2022/08/09 01:44:29;;;;;;;4.15;2.13;;;;;;;19.14;57.34;101438.53;5051201;28;20080;-49
2022/08/09 01:46:58;;;;;;;8.73;2.42;;;;;;;19.11;57.31;101437.69;5084454;28;20419;-50
2022/08/09 01:49:27;;;;;;;5.72;2.58;;;;;;;19.06;57.23;101439.50;5086890;28;20123;-51
2022/08/09 01:52:11;;;;;;;5.07;2.25;;;;;;;19.01;57.59;101445.72;5087872;28;20093;-51
2022/08/09 01:54:45;;;;;;;3.85;2.38;;;;;;;19.00;57.58;101440.47;5094592;28;20100;-50
2022/08/09 01:57:19;;;;;;;5.78;2.80;;;;;;;18.98;57.59;101437.88;5085499;28;20137;-45
2022/08/09 01:59:51;;;;;;;4.05;2.67;;;;;;;18.95;57.54;101445.78;5082263;28;20055;-52
2022/08/09 02:02:24;;;;;;;5.88;2.78;;;;;;;18.90;57.92;101445.00;5092206;28;20113;-49
2022/08/09 02:05:01;;;;;;;4.53;3.60;;;;;;;18.88;57.88;101441.56;5084567;28;20411;-53
2022/08/09 02:07:35;;;;;;;5.13;3.08;;;;;;;18.84;58.53;101442.47;5082327;28;20040;-52
2022/08/09 02:10:27;;;;;;;6.20;2.70;;;;;;;18.80;57.74;101444.28;5083357;28;20484;-49
2022/08/09 02:12:59;;;;;;;4.47;2.70;;;;;;;18.78;58.47;101440.78;5088367;28;20056;-50
2022/08/09 02:15:28;;;;;;;7.28;2.92;;;;;;;18.77;57.92;101432.97;5078312;28;20048;-48
2022/08/09 02:18:19;;;;;;;5.03;3.42;;;;;;;18.73;58.15;101438.25;5077995;28;20131;-48
2022/08/09 02:20:54;;;;;;;5.63;2.92;;;;;;;18.70;58.62;101440.94;5082434;28;20051;-50
2022/08/09 02:23:36;;;;;;;3.97;2.60;;;;;;;18.61;58.52;101444.53;5094172;28;20504;-52
2022/08/09 02:26:08;;;;;;;3.67;2.47;;;;;;;18.62;58.77;101429.69;5086524;28;20056;-48
2022/08/09 02:28:56;;;;;;;5.68;2.92;;;;;;;18.60;58.17;101426.19;5082830;28;20049;-51
2022/08/09 02:31:31;;;;;;;5.97;3.08;;;;;;;18.58;58.48;101428.00;5092616;28;20042;-49
2022/08/09 02:34:09;;;;;;;6.97;2.85;;;;;;;18.53;58.73;101419.28;5087835;28;20052;-46
2022/08/09 02:36:55;;;;;;;4.88;2.78;;;;;;;18.49;59.00;101427.22;5090396;28;20036;-53
2022/08/09 02:39:44;;;;;;;3.88;2.70;;;;;;;18.44;59.27;101429.03;5081603;28;20040;-48
2022/08/09 02:42:26;;;;;;;4.15;2.72;;;;;;;18.36;59.50;101428.28;5053326;28;20041;-47
2022/08/09 02:45:01;;;;;;;4.70;2.50;;;;;;;18.33;58.70;101417.81;5069380;28;20040;-45
2022/08/09 02:47:31;;;;;;;4.13;2.70;;;;;;;18.33;58.50;101425.69;5071251;28;20048;-51
2022/08/09 02:50:24;;;;;;;3.25;2.40;;;;;;;18.29;59.44;101416.13;5074160;28;20112;-48
2022/08/09 02:52:58;;;;;;;4.55;2.80;;;;;;;18.27;58.54;101423.16;5070758;28;20824;-52
2022/08/09 02:55:27;;;;;;;6.13;3.20;;;;;;;18.23;59.07;101417.94;5066349;28;20040;-47
2022/08/09 02:58:15;;;;;;;;;;;;;;;17.97;59.59;101418.25;5066020;28;20098;-46
2022/08/09 03:01:05;;;;;;;4.25;2.38;;;;;;;18.10;59.28;101416.34;5070541;28;19996;-47
2022/08/09 03:03:36;;;;;;;6.40;3.00;;;;;;;18.10;59.28;101432.06;5071002;28;20071;-47
2022/08/09 03:06:25;;;;;;;6.35;3.13;;;;;;;18.06;59.35;101419.88;5079970;28;20044;-45
2022/08/09 03:08:53;;;;;;;;;;;;;;;17.80;59.31;101418.44;5068643;28;20052;-45
2022/08/09 03:11:22;;;;;;;5.35;3.85;;;;;;;17.94;58.54;101421.75;5073714;28;20337;-45
2022/08/09 03:14:10;;;;;;;4.20;2.67;;;;;;;17.93;58.60;101430.50;5068472;28;20076;-46
2022/08/09 03:16:38;;;;;;;5.90;2.80;;;;;;;17.92;59.24;101423.53;5072228;28;20044;-44
2022/08/09 03:19:15;;;;;;;5.63;3.13;;;;;;;17.88;59.12;101428.81;5066856;28;20040;-45
2022/08/09 03:22:03;;;;;;;7.28;3.50;;;;;;;17.81;59.12;101426.28;5070249;28;20105;-48
2022/08/09 03:24:30;;;;;;;5.00;3.05;;;;;;;17.79;58.99;101428.03;5072662;28;20048;-51
2022/08/09 03:27:17;;;;;;;7.10;3.20;;;;;;;17.75;59.35;101428.09;5071046;28;20047;-47
2022/08/09 03:29:49;;;;;;;6.10;3.47;;;;;;;17.75;59.32;101428.09;5064086;28;20057;-47
2022/08/09 03:32:28;;;;;;;6.10;3.50;;;;;;;17.70;59.87;101434.25;5077599;28;20044;-46
2022/08/09 03:34:56;;;;;;;5.55;3.63;;;;;;;17.64;60.08;101434.31;5067590;28;20061;-46
2022/08/09 03:37:23;;;;;;;5.93;3.33;;;;;;;17.64;60.18;101439.56;5075546;28;20080;-50
2022/08/09 03:40:12;;;;;;;5.65;2.97;;;;;;;17.60;60.36;101440.47;5073564;28;20119;-49
2022/08/09 03:42:44;;;;;;;6.97;3.53;;;;;;;17.57;60.31;101438.72;5073835;28;20055;-48
2022/08/09 03:45:12;;;;;;;4.78;3.28;;;;;;;17.56;60.14;101436.16;5067127;28;20044;-47
2022/08/09 03:47:40;;;;;;;6.80;3.97;;;;;;;17.53;59.80;101430.94;5067420;28;20444;-46
2022/08/09 03:50:13;;;;;;;5.22;2.70;;;;;;;17.51;60.75;101432.69;5076111;28;20049;-46
2022/08/09 03:52:56;;;;;;;5.28;3.05;;;;;;;17.48;60.62;101438.81;5073635;28;20044;-45
2022/08/09 03:55:26;;;;;;;5.25;3.15;;;;;;;17.47;60.39;101435.31;5085321;28;20051;-50
2022/08/09 03:57:56;;;;;;;6.35;3.00;;;;;;;17.45;60.57;101437.09;5071764;28;20072;-47
2022/08/09 04:00:41;;;;;;;5.88;2.72;;;;;;;17.44;60.92;101440.63;5073774;28;20056;-47
2022/08/09 04:03:09;;;;;;;5.15;2.88;;;;;;;17.43;60.12;101440.63;5071159;28;20048;-48
2022/08/09 04:05:56;;;;;;;5.65;3.08;;;;;;;17.41;60.68;101442.38;5071810;28;20044;-47
2022/08/09 04:08:23;;;;;;;6.72;3.70;;;;;;;17.39;60.56;101447.63;5066386;28;20049;-46
2022/08/09 04:10:55;;;;;;;7.25;4.05;;;;;;;17.36;60.49;101442.41;5073881;28;21144;-50
2022/08/09 04:13:27;;;;;;;7.10;4.47;;;;;;;17.34;61.19;101441.56;5066622;28;20385;-47
2022/08/09 04:16:13;;;;;;;6.60;3.10;;;;;;;17.28;60.71;101446.84;5073002;28;20781;-50
2022/08/09 04:18:47;;;;;;;4.57;3.25;;;;;;;17.24;60.79;101450.38;5079331;28;20048;-47
2022/08/09 04:21:16;;;;;;;6.30;3.20;;;;;;;17.19;60.91;101442.59;5072718;28;20049;-45
2022/08/09 04:23:43;;;;;;;6.95;3.67;;;;;;;17.14;60.63;101450.47;5069493;28;20044;-46
2022/08/09 04:26:20;;;;;;;6.70;3.53;;;;;;;17.11;60.63;101455.72;5072051;28;20048;-49
2022/08/09 04:28:49;;;;;;;5.25;3.42;;;;;;;17.09;60.85;101457.47;5062760;28;20059;-50
2022/08/09 04:31:15;;;;;;;12.43;3.47;;;;;;;17.06;60.84;101452.28;5069854;28;20056;-47
2022/08/09 04:33:42;;;;;;;4.47;2.95;;;;;;;17.05;60.84;101450.47;5069740;28;20056;-49
2022/08/09 04:36:19;;;;;;;4.97;3.13;;;;;;;17.03;60.95;101457.50;5072100;28;20048;-52
2022/08/09 04:38:48;;;;;;;7.60;3.53;;;;;;;17.01;60.87;101454.88;5082198;28;20056;-48
2022/08/09 04:41:15;;;;;;;7.10;3.75;;;;;;;17.01;61.02;101459.25;5070001;28;20967;-48
2022/08/09 04:43:43;;;;;;;12.80;3.55;;;;;;;16.99;61.61;101454.00;5068002;28;20082;-46
2022/08/09 04:46:31;;;;;;;10.18;4.40;;;;;;;16.96;61.35;101460.16;5069443;28;20048;-47
2022/08/09 04:49:18;;;;;;;9.70;4.45;;;;;;;16.94;61.82;101461.03;5066901;28;20151;-49
2022/08/09 04:52:04;;;;;;;7.57;3.80;;;;;;;16.92;61.46;101460.19;5067065;28;20159;-49
2022/08/09 04:54:33;;;;;;;5.60;3.58;;;;;;;16.90;61.62;101454.97;5070912;28;20063;-44
2022/08/09 04:56:59;;;;;;;9.48;4.47;;;;;;;16.90;61.66;101472.41;5072940;28;20138;-49
2022/08/09 04:59:29;;;;;;;6.45;3.75;;;;;;;16.88;61.57;101461.94;5071213;28;20040;-47
2022/08/09 05:01:59;;;;;;;6.32;3.33;;;;;;;16.87;61.75;101467.19;5059989;28;20086;-46
2022/08/09 05:04:28;;;;;;;6.32;3.58;;;;;;;16.86;62.15;101471.56;5071506;28;20055;-45
2022/08/09 05:06:57;;;;;;;7.13;3.97;;;;;;;16.87;61.61;101460.22;5073757;28;20047;-48
2022/08/09 05:09:24;;;;;;;8.63;4.10;;;;;;;16.89;62.08;101466.28;5068499;28;20044;-48
2022/08/09 05:12:10;;;;;;;10.10;3.97;;;;;;;16.90;61.53;101472.41;5065363;28;20129;-46
2022/08/09 05:14:38;;;;;;;9.95;3.58;;;;;;;16.89;61.93;101470.69;5068713;28;20135;-48
2022/08/09 05:17:07;;;;;;;7.15;3.58;;;;;;;16.89;61.94;101482.00;5064864;28;20040;-47
2022/08/09 05:19:53;;;;;;;8.43;3.53;;;;;;;16.89;62.13;101487.22;5067664;28;20340;-48
2022/08/09 05:22:24;;;;;;;8.20;3.75;;;;;;;16.90;62.53;101483.75;5073756;28;20044;-47
2022/08/09 05:25:11;;;;;;;4.90;2.97;;;;;;;16.91;61.64;101479.38;5067885;28;20172;-49
2022/08/09 05:27:41;;;;;;;6.63;3.47;;;;;;;16.96;62.26;101473.22;5075081;28;20044;-47
2022/08/09 05:30:14;;;;;;;6.93;3.42;;;;;;;16.99;62.70;101479.34;5066490;28;20054;-49
2022/08/09 05:32:45;;;;;;;6.85;3.97;;;;;;;17.02;62.59;101487.19;5075827;28;20048;-45
2022/08/09 05:35:19;;;;;;;7.00;3.92;;;;;;;17.08;62.99;101487.16;5070072;28;20048;-48
2022/08/09 05:37:47;;;;;;;6.10;3.83;;;;;;;17.19;63.39;101490.56;5067113;28;20059;-48
2022/08/09 05:40:16;;;;;;;9.25;4.40;;;;;;;17.28;62.97;101488.75;5067969;28;20500;-50
2022/08/09 05:42:44;;;;;;;10.45;3.47;;;;;;;17.34;62.69;101493.94;5073415;28;20048;-45
2022/08/09 05:45:11;;;;;;;6.47;3.97;;;;;;;17.43;63.24;101493.00;5069122;28;20087;-50
2022/08/09 05:47:41;;;;;;;8.98;3.55;;;;;;;17.57;63.05;101492.88;5068819;28;20051;-51
2022/08/09 05:50:22;;;;;;;5.28;3.72;;;;;;;17.73;62.78;101493.59;5064482;28;20072;-49
2022/08/09 05:53:10;;;;;;;7.93;3.90;;;;;;;17.92;63.18;101491.69;5070205;28;20167;-47
2022/08/09 05:55:56;;;;;;;7.13;3.75;;;;;;;18.07;62.60;101498.50;5068073;28;20075;-48
2022/08/09 05:58:23;;;;;;;6.78;4.20;;;;;;;18.24;62.60;101494.88;5060910;28;20095;-50
2022/08/09 06:00:50;;;;;;;6.60;3.47;;;;;;;18.41;62.38;101499.88;5060000;28;20052;-47
2022/08/09 06:03:17;;;;;;;7.43;3.40;;;;;;;18.53;61.26;101503.25;5062621;28;20044;-49
2022/08/09 06:05:45;;;;;;;6.25;3.08;;;;;;;18.54;61.27;101505.84;5070827;28;20051;-47
2022/08/09 06:08:23;;;;;;;6.78;3.03;;;;;;;18.49;60.96;101513.81;5068151;28;20040;-49
2022/08/09 06:10:54;;;;;;;6.53;3.08;;;;;;;18.45;60.77;101512.09;5062476;28;20043;-45
2022/08/09 06:13:21;;;;;;;7.75;4.20;;;;;;;18.39;61.26;101512.16;5047875;28;20055;-50
2022/08/09 06:15:49;;;;;;;8.60;4.75;;;;;;;18.36;61.20;101507.84;5070212;28;20093;-48
2022/08/09 06:18:20;;;;;;;8.30;3.78;;;;;;;18.35;61.65;101510.47;5075130;28;20104;-49
2022/08/09 06:20:53;;;;;;;9.20;3.78;;;;;;;18.35;61.25;101506.09;5067082;28;20044;-47
2022/08/09 06:23:25;;;;;;;11.35;4.50;;;;;;;18.36;61.25;101507.84;5069477;28;20507;-44
2022/08/09 06:26:14;;;;;;;5.82;3.95;;;;;;;18.40;61.46;101505.19;5068856;28;20228;-45
2022/08/09 06:28:49;;;;;;;7.43;3.47;;;;;;;18.44;61.40;101502.47;5080527;28;20036;-45
2022/08/09 06:31:27;;;;;;;6.28;3.83;;;;;;;18.48;60.55;101495.44;5062165;28;20083;-45
2022/08/09 06:33:57;;;;;;;6.95;3.97;;;;;;;18.55;61.37;101494.50;5069067;28;20044;-46
2022/08/09 06:36:24;;;;;;;5.30;3.17;;;;;;;18.79;61.16;101499.41;5064783;28;20140;-47
2022/08/09 06:38:53;;;;;;;9.60;4.57;;;;;;;19.14;61.48;101492.81;5078263;28;20189;-46
2022/08/09 06:41:23;;;;;;;7.72;4.00;;;;;;;19.51;61.48;101507.97;5073397;28;20485;-44
2022/08/09 06:44:13;;;;;;;8.60;3.90;;;;;;;19.98;61.81;101509.78;5082312;28;20109;-46
2022/08/09 06:46:44;;;;;;;5.35;2.97;;;;;;;20.41;61.02;101518.59;5069730;28;20045;-48
2022/08/09 06:49:11;;;;;;;7.80;3.65;;;;;;;20.86;60.25;101523.81;5068879;28;20040;-49
2022/08/09 06:51:48;;;;;;;5.72;3.42;;;;;;;21.29;59.89;101528.13;5071205;28;20040;-47
2022/08/09 06:54:16;;;;;;;8.15;3.22;;;;;;;21.68;58.76;101523.66;5068378;28;20094;-46
2022/08/09 06:56:46;;;;;;;7.80;4.68;;;;;;;22.05;58.56;101527.97;5071879;28;20408;-51
2022/08/09 06:59:13;;;;;;;6.82;3.58;;;;;;;22.42;57.40;101530.47;5073034;28;20494;-47
2022/08/09 07:01:59;;;;;;;6.28;3.10;;;;;;;22.81;57.03;101532.00;5075158;28;20060;-49
2022/08/09 07:04:30;;;;;;;5.75;3.00;;;;;;;23.20;56.15;101538.75;5066468;28;20733;-50
2022/08/09 07:06:57;;;;;;;6.97;3.67;;;;;;;23.52;54.69;101536.84;5070274;28;20131;-50
2022/08/09 07:09:26;;;;;;;7.60;3.10;;;;;;;23.85;54.55;101539.22;5073640;28;20044;-49
2022/08/09 07:12:13;;;;;;;5.13;3.13;;;;;;;24.20;53.29;101548.63;5073543;28;20075;-51
2022/08/09 07:14:45;;;;;;;6.68;3.70;;;;;;;24.54;52.57;101550.03;5075224;28;20090;-48
2022/08/09 07:17:18;;;;;;;5.40;2.78;;;;;;;24.87;52.01;101552.34;5074721;28;20044;-49
2022/08/09 07:19:45;;;;;;;5.93;2.85;;;;;;;25.14;51.31;101546.88;5071216;28;20072;-52
2022/08/09 07:22:17;;;;;;;4.72;2.75;;;;;;;25.42;50.92;101542.19;5076955;28;20127;-49
2022/08/09 07:25:00;;;;;;;10.13;3.30;;;;;;;25.76;50.09;101547.88;5079582;28;20117;-48
2022/08/09 07:27:31;;;;;;;4.88;3.80;;;;;;;26.08;49.79;101545.63;5079175;28;20040;-47
2022/08/09 07:30:01;;;;;;;4.70;2.95;;;;;;;26.37;49.03;101556.75;5083680;28;20047;-51
2022/08/09 07:32:28;;;;;;;9.82;2.80;;;;;;;26.64;48.39;101556.41;5070481;28;20044;-52
2022/08/09 07:35:03;;;;;;;8.25;2.88;;;;;;;26.91;47.73;101556.03;5072921;28;20542;-50
2022/08/09 07:37:38;;;;;;;7.30;2.92;;;;;;;27.21;47.08;101554.63;5071753;28;20052;-51
2022/08/09 07:40:14;;;;;;;5.50;3.53;;;;;;;27.49;46.95;101557.72;5071670;28;20052;-53
2022/08/09 07:42:53;;;;;;;7.45;3.00;;;;;;;27.73;46.14;101557.41;5076987;28;20135;-52
2022/08/09 07:45:24;;;;;;;5.40;2.47;;;;;;;27.97;45.70;101560.63;5077593;28;20043;-50
2022/08/09 07:48:04;;;;;;;4.93;2.30;;;;;;;28.21;45.38;101568.22;5069370;28;20044;-51
2022/08/09 07:50:31;;;;;;;5.47;2.78;;;;;;;28.48;44.68;101557.88;5072710;28;20067;-53
2022/08/09 07:53:03;;;;;;;4.05;2.38;;;;;;;28.74;44.20;101563.59;5069693;28;20060;-53
2022/08/09 07:55:31;;;;;;;7.20;2.17;;;;;;;29.04;43.79;101566.47;5069421;28;20049;-52
2022/08/09 07:58:18;;;;;;;3.40;2.08;;;;;;;29.28;43.22;101561.47;5064329;28;20063;-50
2022/08/09 08:00:51;;;;;;;4.60;2.25;;;;;;;29.47;41.79;101569.28;5069181;28;20139;-48
2022/08/09 08:03:21;;;;;;;8.05;2.55;;;;;;;29.69;41.18;101568.03;5064147;28;20047;-53
2022/08/09 08:05:52;;;;;;;6.85;2.83;;;;;;;29.86;41.23;101560.81;5069195;28;20134;-52
2022/08/09 08:08:23;;;;;;;5.07;1.92;;;;;;;29.99;40.95;101567.09;5071584;28;20040;-47
2022/08/09 08:11:12;;;;;;;4.85;2.42;;;;;;;30.22;40.76;101564.84;5069452;28;20976;-50
2022/08/09 08:13:59;;;;;;;;;;;;;;;30.56;41.28;101563.69;5065509;28;20083;-54
2022/08/09 08:16:26;;;;;;;2.47;1.58;;;;;;;30.72;39.21;101560.88;5065812;28;19925;-51
2022/08/09 08:18:56;;;;;;;9.25;2.20;;;;;;;30.86;39.29;101565.38;5080695;28;20048;-52
2022/08/09 08:21:24;;;;;;;2.55;1.55;;;;;;;31.01;39.06;101564.38;5071899;28;20052;-55
2022/08/09 08:23:52;;;;;;;2.72;1.58;;;;;;;31.15;38.35;101573.28;5067712;28;20059;-53
2022/08/09 08:26:21;;;;;;;4.05;1.92;;;;;;;31.37;37.84;101569.19;5068455;28;20765;-52
2022/08/09 08:28:52;;;;;;;3.40;1.58;;;;;;;31.61;37.41;101576.53;5065920;28;20051;-54
2022/08/09 08:31:19;;;;;;;3.95;1.80;;;;;;;31.74;37.46;101569.34;5058481;28;20115;-53
2022/08/09 08:34:04;;;;;;;3.10;1.52;;;;;;;31.91;37.11;101570.88;5065760;28;20048;-52
2022/08/09 08:36:34;;;;;;;2.42;1.50;;;;;;;32.07;37.10;101569.81;5068594;28;20057;-50
2022/08/09 08:39:05;;;;;;;2.80;1.58;;;;;;;32.30;37.31;101586.94;5068715;28;21738;-54
2022/08/09 08:41:37;;;;;;;4.65;1.85;;;;;;;32.48;35.99;101589.28;5073212;28;20054;-54
2022/08/09 08:44:20;;;;;;;3.58;1.70;;;;;;;32.59;35.61;101591.19;5079669;28;20050;-50
2022/08/09 08:46:56;;;;;;;2.92;1.65;;;;;;;32.68;35.69;101597.69;5076831;28;20044;-48
2022/08/09 08:49:32;;;;;;;2.30;1.77;;;;;;;32.72;34.82;101595.66;5066626;28;20052;-53
2022/08/09 08:52:16;;;;;;;1.88;1.63;;;;;;;32.89;34.91;101586.38;5077119;28;20551;-52
2022/08/09 08:55:03;;;;;;;4.18;1.60;;;;;;;33.12;34.92;101586.53;5062201;28;20561;-54
2022/08/09 08:57:32;;;;;;;5.00;2.50;;;;;;;33.34;34.20;101586.59;5059934;28;20132;-51
2022/08/09 09:00:03;;;;;;;4.93;1.75;;;;;;;33.41;34.47;101587.00;5057756;28;20973;-52
2022/08/09 09:02:47;;;;;;;6.10;1.83;;;;;;;33.58;33.61;101580.38;5055263;28;20187;-53
2022/08/09 09:05:22;;;;;;;3.40;1.65;;;;;;;33.74;33.98;101571.13;5059872;28;20469;-52
2022/08/09 09:08:12;;;;;;;3.20;1.40;;;;;;;33.92;32.82;101565.25;5047433;28;20142;-53
2022/08/09 09:10:59;;;;;;;2.10;1.30;;;;;;;34.12;32.83;101568.22;5044759;28;20048;-54
2022/08/09 09:13:27;;;;;;;2.78;1.40;;;;;;;34.25;32.79;101558.22;5061793;28;20048;-56
2022/08/09 09:16:14;;;;;;;2.10;1.20;;;;;;;34.32;31.25;101556.75;5059063;28;20178;-52
2022/08/09 09:18:41;;;;;;;2.30;1.55;;;;;;;34.26;31.92;101554.53;5059610;28;20048;-54
2022/08/09 09:21:17;;;;;;;2.38;1.20;;;;;;;34.27;31.79;101558.91;5060035;28;20044;-55
2022/08/09 09:23:51;;;;;;;1.02;0.65;;;;;;;34.36;31.58;101555.50;5053940;28;20052;-53
2022/08/09 09:26:24;;;;;;;2.15;1.15;;;;;;;34.46;31.00;101554.75;5049225;28;20052;-49
2022/08/09 09:28:51;;;;;;;1.52;1.08;;;;;;;34.56;30.27;101554.84;5049021;28;20059;-48
2022/08/09 09:31:35;;;;;;;1.92;0.95;;;;;;;34.44;30.45;101559.41;5054913;28;20059;-50
2022/08/09 09:34:22;;;;;;;2.30;0.98;;;;;;;34.42;29.82;101553.28;5053230;28;20107;-51
2022/08/09 09:36:49;;;;;;;1.77;0.85;;;;;;;34.31;29.87;101552.31;5052528;28;20057;-53
2022/08/09 09:39:22;;;;;;;2.42;0.77;;;;;;;34.16;30.05;101550.88;5049711;28;20047;-52
2022/08/09 09:42:22;;;;;;;1.45;0.90;;;;;;;34.08;29.64;101551.47;5022185;28;20707;-52
2022/08/09 09:44:56;;;;;;;3.45;1.05;;;;;;;34.15;29.73;101551.84;5033592;28;20048;-51
2022/08/09 09:47:25;;;;;;;4.13;0.90;;;;;;;34.19;30.12;101553.31;5053785;28;20052;-55
2022/08/09 09:49:56;;;;;;;3.42;1.05;;;;;;;34.39;30.13;101554.41;5061620;28;20649;-54
2022/08/09 09:52:50;;;;;;;;;;;;;;;34.39;29.60;101553.53;5027685;28;20056;-54
2022/08/09 09:55:21;;;;;;;2.00;0.80;;;;;;;34.33;30.43;101561.13;5055689;28;19928;-50
2022/08/09 09:58:01;;;;;;;2.33;1.00;;;;;;;34.41;29.44;101551.59;5058347;28;20060;-54
2022/08/09 10:03:39;;;;;;;2.05;1.80;;;;;;;34.44;29.89;101545.97;5032296;27;20409;-48
2022/08/09 10:06:10;;;;;;;2.50;2.30;;;;;;;34.48;29.45;101548.25;5001472;28;20081;-56
2022/08/09 10:08:40;;;;;;;1.92;1.83;;;;;;;34.31;28.74;101546.94;5002651;28;20100;-50
2022/08/09 10:13:57;;;;;;;1.83;0.88;;;;;;;34.09;29.93;101540.59;5114379;27;20410;-49
2022/08/09 10:19:07;;;;;;;2.45;1.00;;;;;;;34.31;29.47;101536.19;5033278;27;20405;-53
2022/08/09 10:21:44;;;;;;;2.78;1.42;;;;;;;34.49;29.89;101543.75;5015728;28;20071;-52
2022/08/09 10:24:18;;;;;;;1.55;0.90;;;;;;;34.68;29.30;101540.41;5024743;28;20049;-52
2022/08/09 10:27:01;;;;;;;1.83;0.88;;;;;;;34.64;28.64;101538.13;5011851;28;20133;-54
2022/08/09 10:29:35;;;;;;;2.00;1.60;;;;;;;34.42;29.43;101538.03;5010444;28;20077;-52
2022/08/09 10:32:23;;;;;;;2.15;1.33;;;;;;;34.33;29.13;101539.63;5014622;28;20137;-46
2022/08/09 10:35:09;;;;;;;1.88;0.60;;;;;;;34.35;29.45;101537.63;5035982;28;20111;-55
2022/08/09 10:37:39;;;;;;;1.88;0.80;;;;;;;34.48;29.29;101542.03;5030846;28;20056;-47
2022/08/09 10:40:07;;;;;;;;;;;;;;;34.33;30.21;101533.38;5019076;28;20072;-52
2022/08/09 10:42:54;;;;;;;1.58;0.93;;;;;;;34.57;29.79;101538.59;5022630;28;20017;-50
2022/08/09 10:45:22;;;;;;;3.35;0.82;;;;;;;34.68;28.99;101537.72;5011701;28;20490;-52
2022/08/09 10:48:11;;;;;;;2.28;1.60;;;;;;;34.73;29.51;101529.28;4991433;28;20064;-51
2022/08/09 10:51:08;;;;;;;1.20;0.90;;;;;;;34.90;29.27;101535.06;5010161;28;20053;-50
2022/08/09 10:56:29;;;;;;;2.67;2.38;;;;;;;35.19;28.44;101524.56;5097689;27;20398;-52
2022/08/09 10:58:59;;;;;;;3.08;2.45;;;;;;;35.22;27.47;101524.31;5055129;28;20075;-51
2022/08/09 11:01:42;;;;;;;4.50;2.28;;;;;;;35.06;28.49;101530.13;5060147;28;20404;-53
2022/08/09 11:04:29;;;;;;;2.97;2.75;;;;;;;35.08;27.99;101530.84;5074554;28;20114;-57
2022/08/09 11:20:09;;;;;;;2.45;2.08;;;;;;;35.63;28.25;101524.41;5036213;27;20432;-55
2022/08/09 11:28:42;;;;;;;3.17;1.15;;;;;;;35.81;27.89;101523.81;5033067;28;20409;-51
2022/08/09 11:34:05;;;;;;;4.45;2.80;;;;;;;35.95;27.71;101513.66;5014275;28;20432;-52
2022/08/09 11:36:40;;;;;;;3.55;2.58;;;;;;;35.76;26.60;101515.31;4993003;28;20061;-51
2022/08/09 11:39:07;;;;;;;2.70;2.40;;;;;;;35.56;26.86;101515.16;4997684;28;20054;-53
2022/08/09 11:41:36;;;;;;;2.97;2.78;;;;;;;35.33;27.80;101504.56;4994839;28;20104;-52
2022/08/09 11:44:07;;;;;;;2.65;2.35;;;;;;;35.09;27.98;101511.00;4994071;28;20408;-49
2022/08/09 11:46:51;;;;;;;3.40;2.28;;;;;;;34.73;27.80;101507.75;5000605;28;20039;-53
2022/08/09 11:49:59;;;;;;;3.20;2.63;;;;;;;34.38;27.90;101498.91;5028451;28;20093;-54
2022/08/09 12:32:02;;;;;;;2.65;2.30;;;;;;;34.29;27.82;101460.19;5035030;28;20398;-52
2022/08/09 12:34:32;;;;;;;2.70;2.38;;;;;;;34.20;28.16;101442.09;5008016;28;20046;-52
2022/08/09 12:37:00;;;;;;;4.50;2.70;;;;;;;34.15;28.71;101449.72;5002636;28;20046;-54
2022/08/09 12:39:59;;;;;;;4.13;1.17;;;;;;;34.01;28.18;101448.97;5001911;28;20461;-49
2022/08/09 12:42:27;;;;;;;2.33;2.13;;;;;;;34.02;28.01;101434.56;4998953;28;20051;-56
2022/08/09 12:44:55;;;;;;;;;;;;;;;33.78;28.61;101443.63;5001050;28;20054;-51
2022/08/09 12:47:26;;;;;;;1.73;1.05;;;;;;;33.96;28.06;101445.78;4996090;28;20258;-53
2022/08/09 12:52:49;;;;;;;3.47;2.55;;;;;;;33.96;28.38;101432.38;4996098;28;20108;-51
2022/08/09 12:55:35;;;;;;;2.42;2.22;;;;;;;33.90;28.27;101422.97;4992186;28;20222;-51
2022/08/09 12:58:22;;;;;;;3.30;2.03;;;;;;;33.97;28.26;101431.41;4997976;28;20069;-54
2022/08/09 13:00:53;;;;;;;1.38;1.20;;;;;;;34.06;27.66;101427.09;4999452;28;20243;-51
2022/08/09 13:03:30;;;;;;;2.47;1.25;;;;;;;34.03;27.24;101424.66;4999113;28;20339;-52
2022/08/09 13:06:26;;;;;;;2.22;2.05;;;;;;;33.94;27.45;101426.28;4994983;28;20050;-51
2022/08/09 13:09:05;;;;;;;3.00;2.70;;;;;;;34.05;28.17;101430.75;4996679;28;20046;-49
2022/08/09 13:11:35;;;;;;;2.15;1.98;;;;;;;34.10;27.91;101421.38;5002283;28;20096;-51
2022/08/09 13:14:11;;;;;;;3.58;2.38;;;;;;;34.25;28.41;101423.78;4999500;28;20068;-54
2022/08/09 13:17:00;;;;;;;2.67;2.47;;;;;;;34.42;27.43;101424.22;5001621;28;20085;-53
2022/08/09 13:19:41;;;;;;;3.25;2.55;;;;;;;34.52;27.43;101414.41;5013331;28;20541;-48
2022/08/09 13:22:28;;;;;;;4.80;2.40;;;;;;;34.62;28.19;101414.47;5020621;28;20093;-53
2022/08/09 13:25:15;;;;;;;2.08;1.98;;;;;;;34.73;27.96;101410.91;5021383;28;20081;-50
2022/08/09 13:27:42;;;;;;;2.35;2.17;;;;;;;34.78;27.17;101408.66;5019923;28;20074;-58